createdAt,value
2018-01-18T00:01:15.262Z,3.03
2018-01-18T00:03:42.912Z,3.01
2018-01-18T00:06:10.480Z,2.86
2018-01-18T00:08:38.133Z,3.04
2018-01-18T00:11:05.673Z,3.16
2018-01-18T00:13:33.245Z,3.12
2018-01-18T00:16:00.797Z,2.86
2018-01-18T00:18:28.368Z,2.87
2018-01-18T00:20:55.955Z,3.07
2018-01-18T00:23:23.533Z,3.03
2018-01-18T00:25:51.068Z,2.96
2018-01-18T00:28:18.603Z,2.87
2018-01-18T00:30:46.117Z,2.87
2018-01-18T00:33:13.672Z,2.95
2018-01-18T00:35:41.246Z,2.91
2018-01-18T00:38:08.756Z,2.87
2018-01-18T00:40:36.320Z,3.06
2018-01-18T00:43:03.878Z,3.06
2018-01-18T00:45:31.383Z,2.87
2018-01-18T00:47:59.260Z,2.93
2018-01-18T00:50:26.771Z,3.11
2018-01-18T00:52:54.281Z,3.01
2018-01-18T00:55:21.819Z,2.86
2018-01-18T00:57:49.332Z,2.95
2018-01-18T01:00:16.897Z,3.06
2018-01-18T01:02:44.402Z,2.98
2018-01-18T01:05:12.855Z,2.89
2018-01-18T01:07:40.378Z,2.96
2018-01-18T01:10:07.968Z,2.88
2018-01-18T01:12:35.562Z,2.87
2018-01-18T01:15:03.076Z,2.95
2018-01-18T01:17:30.673Z,2.81
2018-01-18T01:19:58.281Z,2.77
2018-01-18T01:22:25.829Z,2.79
2018-01-18T01:24:53.397Z,2.74
2018-01-18T01:27:21.003Z,2.75
2018-01-18T01:29:48.900Z,2.99
2018-01-18T01:32:16.413Z,2.87
2018-01-18T01:34:43.984Z,2.86
2018-01-18T01:37:11.544Z,2.91
2018-01-18T01:39:39.087Z,2.90
2018-01-18T01:42:06.680Z,2.82
2018-01-18T01:44:34.220Z,2.83
2018-01-18T01:47:01.759Z,2.93
2018-01-18T01:49:29.329Z,2.94
2018-01-18T01:51:56.884Z,2.82
2018-01-18T01:54:24.741Z,2.90
2018-01-18T01:56:52.277Z,2.81
2018-01-18T01:59:19.823Z,2.87
2018-01-18T02:01:47.397Z,2.77
2018-01-18T02:04:14.965Z,2.78
2018-01-18T02:06:42.529Z,2.84
2018-01-18T02:09:10.045Z,2.88
2018-01-18T02:11:37.626Z,2.84
2018-01-18T02:14:05.174Z,2.78
2018-01-18T02:16:32.718Z,2.80
2018-01-18T02:19:00.282Z,3.04
2018-01-18T02:21:27.868Z,2.91
2018-01-18T02:23:55.413Z,2.97
2018-01-18T02:26:22.922Z,3.03
2018-01-18T02:28:50.476Z,3.07
2018-01-18T02:31:18.021Z,2.89
2018-01-18T02:33:45.611Z,2.88
2018-01-18T02:36:13.120Z,2.92
2018-01-18T02:38:40.703Z,2.90
2018-01-18T02:41:08.283Z,2.93
2018-01-18T02:43:35.853Z,3.08
2018-01-18T02:46:03.489Z,2.87
2018-01-18T02:48:31.045Z,2.88
2018-01-18T02:50:58.582Z,2.85
2018-01-18T02:53:26.139Z,2.78
2018-01-18T02:55:53.684Z,2.81
2018-01-18T02:58:21.224Z,2.79
2018-01-18T03:00:48.789Z,2.85
2018-01-18T03:03:16.328Z,2.88
2018-01-18T03:05:43.996Z,2.78
2018-01-18T03:08:11.704Z,2.91
2018-01-18T03:10:39.253Z,2.86
2018-01-18T03:13:06.759Z,2.86
2018-01-18T03:15:34.315Z,2.93
2018-01-18T03:18:01.856Z,3.01
2018-01-18T03:20:29.376Z,2.96
2018-01-18T03:22:57.297Z,2.92
2018-01-18T03:25:24.845Z,2.85
2018-01-18T03:27:52.347Z,3.01
2018-01-18T03:30:19.933Z,2.94
2018-01-18T03:32:47.460Z,2.99
2018-01-18T03:35:14.992Z,3.06
2018-01-18T03:37:42.524Z,2.93
2018-01-18T03:40:10.076Z,3.11
2018-01-18T03:42:37.588Z,3.03
2018-01-18T03:45:05.160Z,3.07
2018-01-18T03:47:32.688Z,3.13
2018-01-18T03:50:00.204Z,3.08
2018-01-18T03:52:27.773Z,2.95
2018-01-18T03:54:55.332Z,2.89
2018-01-18T03:57:22.863Z,2.99
2018-01-18T03:59:50.384Z,2.82
2018-01-18T04:02:17.952Z,3.07
2018-01-18T04:04:45.506Z,2.78
2018-01-18T04:07:13.035Z,2.74
2018-01-18T04:09:40.627Z,2.78
2018-01-18T04:12:08.168Z,2.55
2018-01-18T04:14:35.704Z,2.61
2018-01-18T04:17:03.284Z,2.53
2018-01-18T04:19:30.802Z,2.61
2018-01-18T04:21:58.346Z,2.82
2018-01-18T04:24:25.860Z,2.74
2018-01-18T04:26:53.715Z,2.62
2018-01-18T04:29:21.267Z,2.57
2018-01-18T04:31:48.820Z,2.62
2018-01-18T04:34:16.396Z,2.54
2018-01-18T04:36:43.952Z,2.49
2018-01-18T04:39:11.524Z,2.48
2018-01-18T04:41:39.064Z,2.57
2018-01-18T04:44:06.984Z,2.62
2018-01-18T04:46:34.529Z,2.49
2018-01-18T04:49:02.044Z,2.40
2018-01-18T04:51:29.609Z,2.37
2018-01-18T04:53:57.134Z,2.33
2018-01-18T04:56:24.713Z,2.32
2018-01-18T04:58:52.264Z,2.32
2018-01-18T05:01:19.801Z,2.30
2018-01-18T05:03:47.360Z,2.30
2018-01-18T05:06:14.934Z,2.34
2018-01-18T05:08:42.508Z,2.34
2018-01-18T05:11:10.054Z,2.27
2018-01-18T05:13:37.593Z,2.29
2018-01-18T05:16:05.100Z,2.31
2018-01-18T05:18:32.644Z,2.18
2018-01-18T05:21:00.204Z,2.20
2018-01-18T05:23:27.740Z,2.16
2018-01-18T05:25:55.268Z,2.13
2018-01-18T05:28:22.950Z,2.21
2018-01-18T05:30:50.499Z,2.34
2018-01-18T05:33:18.075Z,2.17
2018-01-18T05:35:45.583Z,2.23
2018-01-18T05:38:13.101Z,2.22
2018-01-18T05:40:40.669Z,2.17
2018-01-18T05:43:08.183Z,2.19
2018-01-18T05:45:35.757Z,2.24
2018-01-18T05:48:03.281Z,2.34
2018-01-18T05:50:30.844Z,2.28
2018-01-18T05:52:58.477Z,2.39
2018-01-18T05:55:26.056Z,2.45
2018-01-18T05:57:53.572Z,2.42
2018-01-18T06:00:21.088Z,2.52
2018-01-18T06:02:48.653Z,2.60
2018-01-18T06:05:16.222Z,2.64
2018-01-18T06:07:43.812Z,2.70
2018-01-18T06:10:11.408Z,2.78
2018-01-18T06:12:38.916Z,2.77
2018-01-18T06:15:06.583Z,2.82
2018-01-18T06:17:34.156Z,2.86
2018-01-18T06:20:01.710Z,2.88
2018-01-18T06:22:29.608Z,3.01
2018-01-18T06:24:57.234Z,3.11
2018-01-18T06:27:24.774Z,3.14
2018-01-18T06:29:52.369Z,3.28
2018-01-18T06:32:19.908Z,3.47
2018-01-18T06:34:47.533Z,3.50
2018-01-18T06:37:15.072Z,3.54
2018-01-18T06:39:42.612Z,3.66
2018-01-18T06:42:10.187Z,3.78
2018-01-18T06:44:37.714Z,3.85
2018-01-18T06:47:05.272Z,4.07
2018-01-18T06:49:32.779Z,4.20
2018-01-18T06:52:00.298Z,4.27
2018-01-18T06:54:27.823Z,4.35
2018-01-18T06:56:55.477Z,4.46
2018-01-18T06:59:23.072Z,4.45
2018-01-18T07:01:50.628Z,4.49
2018-01-18T07:04:18.139Z,4.63
2018-01-18T07:06:45.672Z,4.70
2018-01-18T07:09:13.193Z,4.82
2018-01-18T07:11:40.741Z,4.89
2018-01-18T07:14:08.336Z,4.95
2018-01-18T07:16:35.878Z,5.04
2018-01-18T07:19:03.434Z,5.18
2018-01-18T07:21:31.079Z,5.26
2018-01-18T07:23:58.630Z,5.32
2018-01-18T07:26:26.173Z,5.42
2018-01-18T07:28:53.748Z,5.44
2018-01-18T07:31:21.308Z,5.50
2018-01-18T07:33:48.849Z,5.52
2018-01-18T07:36:16.417Z,5.57
2018-01-18T07:38:43.964Z,5.64
2018-01-18T07:41:11.536Z,5.75
2018-01-18T07:43:39.160Z,5.87
2018-01-18T07:46:06.851Z,6.19
2018-01-18T07:48:34.372Z,6.51
2018-01-18T07:51:01.892Z,6.56
2018-01-18T07:53:29.427Z,6.59
2018-01-18T07:55:56.932Z,6.74
2018-01-18T07:58:24.603Z,6.76
2018-01-18T08:00:52.140Z,6.83
2018-01-18T08:03:25.289Z,7.06
2018-01-18T08:05:52.892Z,7.23
2018-01-18T08:08:20.473Z,7.20
2018-01-18T08:10:47.989Z,7.27
2018-01-18T08:13:15.871Z,7.41
2018-01-18T08:15:43.386Z,7.46
2018-01-18T08:18:11.825Z,7.46
2018-01-18T08:20:39.379Z,7.42
2018-01-18T08:23:06.917Z,7.46
2018-01-18T08:28:16.357Z,7.68
2018-01-18T08:30:43.929Z,7.63
2018-01-18T08:33:11.439Z,7.60
2018-01-18T08:35:39.010Z,7.52
2018-01-18T08:38:06.526Z,7.58
2018-01-18T08:40:34.070Z,7.58
2018-01-18T08:43:01.665Z,7.67
2018-01-18T08:45:29.237Z,7.63
2018-01-18T08:47:56.784Z,7.42
2018-01-18T08:50:24.409Z,7.15
2018-01-18T08:52:52.003Z,7.14
2018-01-18T08:55:19.525Z,7.02
2018-01-18T08:57:47.109Z,7.17
2018-01-18T09:00:14.664Z,7.05
2018-01-18T09:02:42.201Z,6.94
2018-01-18T09:05:09.873Z,6.74
2018-01-18T09:07:37.456Z,6.65
2018-01-18T09:10:04.974Z,6.59
2018-01-18T09:12:32.512Z,6.48
2018-01-18T09:15:00.408Z,6.52
2018-01-18T09:17:28.138Z,6.61
2018-01-18T09:19:55.722Z,6.69
2018-01-18T09:22:23.353Z,6.64
2018-01-18T09:24:50.892Z,6.74
2018-01-18T09:27:18.427Z,6.63
2018-01-18T09:29:45.961Z,6.59
2018-01-18T09:32:13.683Z,6.54
2018-01-18T09:34:41.364Z,6.43
2018-01-18T09:37:08.906Z,6.41
2018-01-18T09:39:36.484Z,6.30
2018-01-18T09:42:04.021Z,6.29
2018-01-18T09:44:31.596Z,6.24
2018-01-18T09:46:59.128Z,6.03
2018-01-18T09:49:26.702Z,5.88
2018-01-18T09:51:54.346Z,5.84
2018-01-18T09:54:21.949Z,5.64
2018-01-18T09:56:49.521Z,5.52
2018-01-18T09:59:17.380Z,5.50
2018-01-18T10:01:44.977Z,5.45
2018-01-18T10:04:12.473Z,5.26
2018-01-18T10:06:40.098Z,5.08
2018-01-18T10:09:07.621Z,5.05
2018-01-18T10:11:35.119Z,4.92
2018-01-18T10:14:02.677Z,5.05
2018-01-18T10:16:30.220Z,4.90
2018-01-18T10:18:57.762Z,4.78
2018-01-18T10:21:25.325Z,4.81
2018-01-18T10:23:52.842Z,4.67
2018-01-18T10:26:20.373Z,4.79
2018-01-18T10:28:47.920Z,4.46
2018-01-18T10:31:15.480Z,4.45
2018-01-18T10:33:43.080Z,4.41
2018-01-18T10:36:10.712Z,4.29
2018-01-18T10:38:38.281Z,4.39
2018-01-18T10:41:05.826Z,4.34
2018-01-18T10:43:33.396Z,4.48
2018-01-18T10:46:00.936Z,4.48
2018-01-18T10:48:28.480Z,4.55
2018-01-18T10:50:56.035Z,4.64
2018-01-18T10:53:23.598Z,4.75
2018-01-18T10:55:51.116Z,4.84
2018-01-18T10:58:18.688Z,4.95
2018-01-18T11:00:46.288Z,4.95
2018-01-18T11:03:13.801Z,4.85
2018-01-18T11:05:41.331Z,4.68
2018-01-18T11:08:08.866Z,4.49
2018-01-18T11:10:36.418Z,4.33
2018-01-18T11:13:03.985Z,4.16
2018-01-18T11:15:31.497Z,4.09
2018-01-18T11:17:59.053Z,4.08
2018-01-18T11:20:26.664Z,4.01
2018-01-18T11:22:54.613Z,4.04
2018-01-18T11:25:22.134Z,3.98
2018-01-18T11:27:49.720Z,4.01
2018-01-18T11:30:17.256Z,3.98
2018-01-18T11:32:44.959Z,4.06
2018-01-18T11:35:12.472Z,4.07
2018-01-18T11:37:40.025Z,4.09
2018-01-18T11:40:07.563Z,4.14
2018-01-18T11:42:35.161Z,4.10
2018-01-18T11:45:02.728Z,4.12
2018-01-18T11:47:30.241Z,4.10
2018-01-18T11:49:57.774Z,4.17
2018-01-18T11:52:25.340Z,4.15
2018-01-18T11:54:52.883Z,4.07
2018-01-18T11:57:20.399Z,4.17
2018-01-18T11:59:47.937Z,4.05
2018-01-18T12:02:15.444Z,4.06
2018-01-18T12:04:43.026Z,3.81
2018-01-18T12:07:10.588Z,3.77
2018-01-18T12:09:38.234Z,3.82
2018-01-18T12:12:06.236Z,3.76
2018-01-18T12:14:33.763Z,3.78
2018-01-18T12:17:01.286Z,3.92
2018-01-18T12:19:28.844Z,3.93
2018-01-18T12:21:56.386Z,3.88
2018-01-18T12:24:24.001Z,3.92
2018-01-18T12:26:51.536Z,3.91
2018-01-18T12:29:19.138Z,3.96
2018-01-18T12:31:46.985Z,3.99
2018-01-18T12:34:14.487Z,4.01
2018-01-18T12:36:42.026Z,4.13
2018-01-18T12:39:09.575Z,4.29
2018-01-18T12:41:37.080Z,4.25
2018-01-18T12:44:05.090Z,4.22
2018-01-18T12:46:32.611Z,4.24
2018-01-18T12:49:00.234Z,4.36
2018-01-18T12:51:27.833Z,4.19
2018-01-18T12:53:55.352Z,4.20
2018-01-18T12:56:22.881Z,4.19
2018-01-18T12:58:50.472Z,4.26
2018-01-18T13:01:18.008Z,4.22
2018-01-18T13:03:45.537Z,4.30
2018-01-18T13:06:13.124Z,4.36
2018-01-18T13:08:40.718Z,4.58
2018-01-18T13:11:08.256Z,4.46
2018-01-18T13:13:35.849Z,4.49
2018-01-18T13:16:03.784Z,4.51
2018-01-18T13:18:31.424Z,4.50
2018-01-18T13:20:58.950Z,4.41
2018-01-18T13:23:26.513Z,4.49
2018-01-18T13:25:54.389Z,4.64
2018-01-18T13:28:21.926Z,4.62
2018-01-18T13:30:49.469Z,4.60
2018-01-18T13:33:17.014Z,4.66
2018-01-18T13:35:44.596Z,4.78
2018-01-18T13:38:12.219Z,4.84
2018-01-18T13:40:39.732Z,5.02
2018-01-18T13:43:07.273Z,4.99
2018-01-18T13:45:34.810Z,4.94
2018-01-18T13:48:02.319Z,4.99
2018-01-18T13:50:29.886Z,4.85
2018-01-18T13:52:57.421Z,4.68
2018-01-18T13:55:24.973Z,4.63
2018-01-18T13:57:52.556Z,4.53
2018-01-18T14:00:20.083Z,4.54
2018-01-18T14:02:47.624Z,4.44
2018-01-18T14:05:15.188Z,4.46
2018-01-18T14:07:42.701Z,4.40
2018-01-18T14:10:10.241Z,4.56
2018-01-18T14:12:38.186Z,4.54
2018-01-18T14:15:05.733Z,4.44
2018-01-18T14:17:33.280Z,4.47
2018-01-18T14:20:00.825Z,4.45
2018-01-18T14:22:28.390Z,4.34
2018-01-18T14:24:55.907Z,4.45
2018-01-18T14:27:23.440Z,4.43
2018-01-18T14:29:51.009Z,4.49
2018-01-18T14:32:18.549Z,4.45
2018-01-18T14:34:46.084Z,4.48
2018-01-18T14:37:13.583Z,4.59
2018-01-18T14:39:41.113Z,4.68
2018-01-18T14:42:08.684Z,4.56
2018-01-18T14:44:36.193Z,4.52
2018-01-18T14:47:03.859Z,4.50
2018-01-18T14:49:31.376Z,4.58
2018-01-18T14:51:58.905Z,4.53
2018-01-18T14:54:26.464Z,4.50
2018-01-18T14:56:54.057Z,4.42
2018-01-18T14:59:21.566Z,4.31
2018-01-18T15:01:49.282Z,4.32
2018-01-18T15:04:16.820Z,4.22
2018-01-18T15:06:44.414Z,4.05
2018-01-18T15:09:12.119Z,3.99
2018-01-18T15:11:39.773Z,3.86
2018-01-18T15:14:07.304Z,3.79
2018-01-18T15:16:34.930Z,3.79
2018-01-18T15:19:02.829Z,3.75
2018-01-18T15:21:30.342Z,3.77
2018-01-18T15:23:57.981Z,3.77
2018-01-18T15:26:25.503Z,3.76
2018-01-18T15:28:53.060Z,3.82
2018-01-18T15:31:20.597Z,3.81
2018-01-18T15:33:48.107Z,3.85
2018-01-18T15:36:15.659Z,3.82
2018-01-18T15:38:43.170Z,3.79
2018-01-18T15:41:10.732Z,3.74
2018-01-18T15:43:38.249Z,3.72
2018-01-18T15:46:05.805Z,3.72
2018-01-18T15:48:33.395Z,3.71
2018-01-18T15:51:00.937Z,3.62
2018-01-18T15:53:28.641Z,3.57
2018-01-18T15:55:56.306Z,3.55
2018-01-18T15:58:23.815Z,3.51
2018-01-18T16:00:51.373Z,3.58
2018-01-18T16:03:18.871Z,3.53
2018-01-18T16:05:46.465Z,3.49
2018-01-18T16:08:14.181Z,3.51
2018-01-18T16:10:41.697Z,3.52
2018-01-18T16:13:09.236Z,3.52
2018-01-18T16:15:36.773Z,3.57
2018-01-18T16:18:04.308Z,3.57
2018-01-18T16:20:31.917Z,3.56
2018-01-18T16:22:59.515Z,3.58
2018-01-18T16:25:27.049Z,3.48
2018-01-18T16:27:54.601Z,3.52
2018-01-18T16:30:22.140Z,3.51
2018-01-18T16:32:49.701Z,3.51
2018-01-18T16:35:17.232Z,3.48
2018-01-18T16:37:44.754Z,3.50
2018-01-18T16:40:12.417Z,3.45
2018-01-18T16:42:39.988Z,3.48
2018-01-18T16:45:07.672Z,3.45
2018-01-18T16:47:35.266Z,3.55
2018-01-18T16:50:02.813Z,3.50
2018-01-18T16:52:30.324Z,3.47
2018-01-18T16:54:57.975Z,3.46
2018-01-18T16:57:25.546Z,3.57
2018-01-18T16:59:53.169Z,3.42
2018-01-18T17:02:20.823Z,3.45
2018-01-18T17:04:48.367Z,3.50
2018-01-18T17:07:15.894Z,3.49
2018-01-18T17:09:43.723Z,3.53
2018-01-18T17:12:11.297Z,3.54
2018-01-18T17:14:38.844Z,3.52
2018-01-18T17:17:06.439Z,3.52
2018-01-18T17:19:33.989Z,3.40
2018-01-18T17:22:01.532Z,3.47
2018-01-18T17:24:29.464Z,3.40
2018-01-18T17:26:57.013Z,3.40
2018-01-18T17:29:24.559Z,3.39
2018-01-18T17:31:52.204Z,3.34
2018-01-18T17:34:19.752Z,3.30
2018-01-18T17:36:47.293Z,3.31
2018-01-18T17:39:14.898Z,3.22
2018-01-18T17:41:42.673Z,3.20
2018-01-18T17:44:10.207Z,3.14
2018-01-18T17:46:38.127Z,3.15
2018-01-18T17:49:06.084Z,3.18
2018-01-18T17:51:33.682Z,3.21
2018-01-18T17:54:01.219Z,3.31
2018-01-18T17:56:28.757Z,3.24
2018-01-18T17:58:56.504Z,3.36
2018-01-18T18:01:24.049Z,3.23
2018-01-18T18:03:51.585Z,3.13
2018-01-18T18:06:19.235Z,3.06
2018-01-18T18:08:46.780Z,2.97
2018-01-18T18:11:14.325Z,2.97
2018-01-18T18:13:41.861Z,2.98
2018-01-18T18:16:09.364Z,2.90
2018-01-18T18:18:36.920Z,2.85
2018-01-18T18:21:04.456Z,2.83
2018-01-18T18:23:32.031Z,2.77
2018-01-18T18:25:59.587Z,2.77
2018-01-18T18:28:27.143Z,2.69
2018-01-18T18:30:54.730Z,2.67
2018-01-18T18:33:22.271Z,2.64
2018-01-18T18:35:50.157Z,2.61
2018-01-18T18:38:17.677Z,2.60
2018-01-18T18:40:45.205Z,2.65
2018-01-18T18:43:12.825Z,2.61
2018-01-18T18:45:40.364Z,2.49
2018-01-18T18:48:07.947Z,2.55
2018-01-18T18:50:35.569Z,2.54
2018-01-18T18:53:03.100Z,2.54
2018-01-18T18:55:30.648Z,2.52
2018-01-18T18:57:58.168Z,2.54
2018-01-18T19:00:25.765Z,2.38
2018-01-18T19:02:54.349Z,2.59
2018-01-18T19:05:22.293Z,2.47
2018-01-18T19:07:49.854Z,2.48
2018-01-18T19:10:17.396Z,2.49
2018-01-18T19:12:45.232Z,2.45
2018-01-18T19:15:12.788Z,2.37
2018-01-18T19:17:40.313Z,2.32
2018-01-18T19:20:07.886Z,2.37
2018-01-18T19:22:35.433Z,2.17
2018-01-18T19:25:03.150Z,2.14
2018-01-18T19:27:30.863Z,2.05
2018-01-18T19:29:58.415Z,2.20
2018-01-18T19:32:25.971Z,2.23
2018-01-18T19:34:53.561Z,2.29
2018-01-18T19:37:21.181Z,2.25
2018-01-18T19:39:48.724Z,2.11
2018-01-18T19:42:16.276Z,2.15
2018-01-18T19:44:43.852Z,2.02
2018-01-18T19:47:11.373Z,1.92
2018-01-18T19:49:38.957Z,1.88
2018-01-18T19:52:06.522Z,1.80
2018-01-18T19:54:34.132Z,1.77
2018-01-18T19:57:01.694Z,1.71
2018-01-18T19:59:29.317Z,1.70
2018-01-18T20:01:56.928Z,1.61
2018-01-18T20:04:24.515Z,1.56
2018-01-18T20:06:52.146Z,1.50
2018-01-18T20:09:19.749Z,1.46
2018-01-18T20:11:47.395Z,1.37
2018-01-18T20:14:14.944Z,1.35
2018-01-18T20:16:42.512Z,1.30
2018-01-18T20:19:10.074Z,1.28
2018-01-18T20:21:37.628Z,1.39
2018-01-18T20:24:05.184Z,1.43
2018-01-18T20:26:32.788Z,1.38
2018-01-18T20:29:00.335Z,1.17
2018-01-18T20:31:27.883Z,1.11
2018-01-18T20:33:55.492Z,0.99
2018-01-18T20:36:23.044Z,1.13
2018-01-18T20:38:50.600Z,1.04
2018-01-18T20:41:18.113Z,1.04
2018-01-18T20:43:45.680Z,0.97
2018-01-18T20:46:13.196Z,1.01
2018-01-18T20:48:40.865Z,0.97
2018-01-18T20:51:08.399Z,0.98
2018-01-18T20:53:35.931Z,0.94
2018-01-18T20:56:03.597Z,0.88
2018-01-18T20:58:31.153Z,0.79
2018-01-18T21:00:58.857Z,0.68
2018-01-18T21:03:26.436Z,0.71
2018-01-18T21:05:53.988Z,0.66
2018-01-18T21:08:21.600Z,0.66
2018-01-18T21:10:49.146Z,0.65
2018-01-18T21:13:16.813Z,0.75
2018-01-18T21:15:44.389Z,0.84
2018-01-18T21:18:12.005Z,0.81
2018-01-18T21:20:39.557Z,0.87
2018-01-18T21:23:07.132Z,0.81
2018-01-18T21:25:34.730Z,0.80
2018-01-18T21:28:02.343Z,0.84
2018-01-18T21:30:29.901Z,0.88
2018-01-18T21:32:57.542Z,0.93
2018-01-18T21:35:25.088Z,0.86
2018-01-18T21:37:52.638Z,0.86
2018-01-18T21:40:20.326Z,0.88
2018-01-18T21:42:47.857Z,0.85
2018-01-18T21:45:15.386Z,0.71
2018-01-18T21:47:42.997Z,0.66
2018-01-18T21:50:10.549Z,0.61
2018-01-18T21:52:38.104Z,0.56
2018-01-18T21:55:05.676Z,0.53
2018-01-18T21:57:33.192Z,0.51
2018-01-18T22:00:00.736Z,0.39
2018-01-18T22:02:28.354Z,0.55
2018-01-18T22:04:55.905Z,0.50
2018-01-18T22:07:23.438Z,0.44
2018-01-18T22:09:51.049Z,0.42
2018-01-18T22:12:18.592Z,0.51
2018-01-18T22:14:46.110Z,0.44
2018-01-18T22:17:13.656Z,0.45
2018-01-18T22:19:41.292Z,0.45
2018-01-18T22:22:08.857Z,0.45
2018-01-18T22:24:36.409Z,0.42
2018-01-18T22:27:03.957Z,0.37
2018-01-18T22:29:31.534Z,0.32
2018-01-18T22:31:59.052Z,0.28
2018-01-18T22:34:26.736Z,0.26
2018-01-18T22:36:54.456Z,0.15
2018-01-18T22:39:22.161Z,0.15
2018-01-18T22:41:49.717Z,0.06
2018-01-18T22:44:17.252Z,-0.09
2018-01-18T22:46:44.857Z,-0.21
2018-01-18T22:49:12.375Z,-0.09
2018-01-18T22:51:39.962Z,-0.23
2018-01-18T22:54:07.568Z,-0.25
2018-01-18T22:56:35.096Z,-0.28
2018-01-18T22:59:02.653Z,-0.41
2018-01-18T23:01:30.172Z,-0.35
2018-01-18T23:03:57.777Z,-0.53
2018-01-18T23:06:25.349Z,-0.66
2018-01-18T23:08:52.892Z,-0.78
2018-01-18T23:11:20.472Z,-0.83
2018-01-18T23:13:48.029Z,-0.91
2018-01-18T23:16:15.600Z,-0.95
2018-01-18T23:18:43.182Z,-1.01
2018-01-18T23:21:10.746Z,-1.06
2018-01-18T23:23:38.357Z,-0.86
2018-01-18T23:26:05.889Z,-0.87
2018-01-18T23:28:33.446Z,-1.01
2018-01-18T23:31:01.030Z,-1.12
2018-01-18T23:33:28.685Z,-1.11
2018-01-18T23:35:56.289Z,-1.12
2018-01-18T23:38:23.872Z,-0.94
2018-01-18T23:40:51.460Z,-0.96
2018-01-18T23:43:19.068Z,-1.02
2018-01-18T23:45:46.620Z,-1.04
2018-01-18T23:48:14.174Z,-1.00
2018-01-18T23:50:41.759Z,-1.07
2018-01-18T23:53:09.381Z,-0.78
2018-01-18T23:55:36.970Z,-0.83
2018-01-18T23:58:04.579Z,-1.01
